sensor_id;sensor_type;location;lat;lon;timestamp;P1;durP1;ratioP1;P2;durP2;ratioP2
27213;SDS011;14723;55.814;37.460;2022-09-13T00:01:56;11.50;;;6.13;;
27213;SDS011;14723;55.814;37.460;2022-09-13T00:05:01;10.70;;;6.45;;
27213;SDS011;14723;55.814;37.460;2022-09-13T00:08:07;11.45;;;6.60;;
27213;SDS011;14723;55.814;37.460;2022-09-13T00:11:14;9.13;;;5.60;;
27213;SDS011;14723;55.814;37.460;2022-09-13T00:14:22;10.93;;;6.20;;
27213;SDS011;14723;55.814;37.460;2022-09-13T00:17:27;12.90;;;6.73;;
27213;SDS011;14723;55.814;37.460;2022-09-13T00:20:33;9.10;;;5.82;;
27213;SDS011;14723;55.814;37.460;2022-09-13T00:23:38;9.60;;;5.88;;
27213;SDS011;14723;55.814;37.460;2022-09-13T00:26:43;10.20;;;6.18;;
27213;SDS011;14723;55.814;37.460;2022-09-13T00:29:51;8.45;;;5.85;;
27213;SDS011;14723;55.814;37.460;2022-09-13T00:32:56;10.77;;;6.20;;
27213;SDS011;14723;55.814;37.460;2022-09-13T00:36:06;8.55;;;5.68;;
27213;SDS011;14723;55.814;37.460;2022-09-13T00:39:11;7.10;;;5.50;;
27213;SDS011;14723;55.814;37.460;2022-09-13T00:42:17;9.82;;;6.60;;
27213;SDS011;14723;55.814;37.460;2022-09-13T00:45:25;10.73;;;6.07;;
27213;SDS011;14723;55.814;37.460;2022-09-13T00:48:30;8.90;;;6.40;;
27213;SDS011;14723;55.814;37.460;2022-09-13T00:51:38;9.15;;;5.85;;
27213;SDS011;14723;55.814;37.460;2022-09-13T00:54:46;8.52;;;6.30;;
27213;SDS011;14723;55.814;37.460;2022-09-13T00:57:54;8.32;;;6.13;;
27213;SDS011;14723;55.814;37.460;2022-09-13T01:01:05;9.23;;;5.97;;
27213;SDS011;14723;55.814;37.460;2022-09-13T01:04:13;8.48;;;5.85;;
27213;SDS011;14723;55.814;37.460;2022-09-13T01:07:18;11.45;;;6.43;;
27213;SDS011;14723;55.814;37.460;2022-09-13T01:10:24;8.32;;;5.72;;
27213;SDS011;14723;55.814;37.460;2022-09-13T01:13:30;8.02;;;5.90;;
27213;SDS011;14723;55.814;37.460;2022-09-13T01:16:38;9.15;;;5.88;;
27213;SDS011;14723;55.814;37.460;2022-09-13T01:19:48;8.25;;;6.13;;
27213;SDS011;14723;55.814;37.460;2022-09-13T01:23:01;9.98;;;6.05;;
27213;SDS011;14723;55.814;37.460;2022-09-13T01:33:04;11.38;;;6.65;;
27213;SDS011;14723;55.814;37.460;2022-09-13T01:36:19;9.35;;;6.32;;
27213;SDS011;14723;55.814;37.460;2022-09-13T01:39:29;10.38;;;6.03;;
27213;SDS011;14723;55.814;37.460;2022-09-13T01:42:45;7.63;;;5.45;;
27213;SDS011;14723;55.814;37.460;2022-09-13T01:45:53;8.25;;;5.88;;
27213;SDS011;14723;55.814;37.460;2022-09-13T01:49:05;9.73;;;6.43;;
27213;SDS011;14723;55.814;37.460;2022-09-13T01:52:15;12.15;;;6.60;;
27213;SDS011;14723;55.814;37.460;2022-09-13T01:58:28;7.93;;;5.90;;
27213;SDS011;14723;55.814;37.460;2022-09-13T02:01:36;9.02;;;6.07;;
27213;SDS011;14723;55.814;37.460;2022-09-13T02:04:47;9.55;;;6.30;;
27213;SDS011;14723;55.814;37.460;2022-09-13T02:07:56;9.98;;;6.78;;
27213;SDS011;14723;55.814;37.460;2022-09-13T02:11:04;11.95;;;6.10;;
27213;SDS011;14723;55.814;37.460;2022-09-13T02:14:12;10.60;;;6.05;;
27213;SDS011;14723;55.814;37.460;2022-09-13T02:17:19;11.35;;;6.28;;
27213;SDS011;14723;55.814;37.460;2022-09-13T02:20:29;9.70;;;6.45;;
27213;SDS011;14723;55.814;37.460;2022-09-13T02:23:36;9.07;;;6.57;;
27213;SDS011;14723;55.814;37.460;2022-09-13T02:26:43;10.25;;;5.93;;
27213;SDS011;14723;55.814;37.460;2022-09-13T02:29:51;9.25;;;6.07;;
27213;SDS011;14723;55.814;37.460;2022-09-13T02:32:58;10.50;;;6.75;;
27213;SDS011;14723;55.814;37.460;2022-09-13T02:36:08;9.48;;;6.22;;
27213;SDS011;14723;55.814;37.460;2022-09-13T02:39:14;9.38;;;6.57;;
27213;SDS011;14723;55.814;37.460;2022-09-13T02:42:20;12.40;;;6.68;;
27213;SDS011;14723;55.814;37.460;2022-09-13T02:45:27;12.02;;;6.40;;
27213;SDS011;14723;55.814;37.460;2022-09-13T02:48:35;10.75;;;6.20;;
27213;SDS011;14723;55.814;37.460;2022-09-13T02:51:48;12.32;;;6.82;;
27213;SDS011;14723;55.814;37.460;2022-09-13T02:54:56;11.90;;;6.53;;
27213;SDS011;14723;55.814;37.460;2022-09-13T02:58:05;10.63;;;5.95;;
27213;SDS011;14723;55.814;37.460;2022-09-13T03:01:13;11.75;;;6.30;;
27213;SDS011;14723;55.814;37.460;2022-09-13T03:04:18;11.93;;;6.07;;
27213;SDS011;14723;55.814;37.460;2022-09-13T03:07:26;10.70;;;6.00;;
27213;SDS011;14723;55.814;37.460;2022-09-13T03:10:34;10.88;;;6.32;;
27213;SDS011;14723;55.814;37.460;2022-09-13T03:13:57;9.70;;;6.07;;
27213;SDS011;14723;55.814;37.460;2022-09-13T03:17:13;8.93;;;5.90;;
27213;SDS011;14723;55.814;37.460;2022-09-13T03:20:22;8.88;;;6.32;;
27213;SDS011;14723;55.814;37.460;2022-09-13T03:23:40;10.38;;;6.03;;
27213;SDS011;14723;55.814;37.460;2022-09-13T03:26:50;11.93;;;6.72;;
27213;SDS011;14723;55.814;37.460;2022-09-13T03:29:57;9.40;;;6.60;;
27213;SDS011;14723;55.814;37.460;2022-09-13T03:33:07;9.63;;;6.28;;
27213;SDS011;14723;55.814;37.460;2022-09-13T03:36:17;13.10;;;6.65;;
27213;SDS011;14723;55.814;37.460;2022-09-13T03:39:32;10.33;;;7.20;;
27213;SDS011;14723;55.814;37.460;2022-09-13T03:42:40;11.00;;;6.13;;
27213;SDS011;14723;55.814;37.460;2022-09-13T03:45:47;13.18;;;6.43;;
27213;SDS011;14723;55.814;37.460;2022-09-13T03:48:53;13.30;;;6.53;;
27213;SDS011;14723;55.814;37.460;2022-09-13T03:52:00;12.45;;;6.45;;
27213;SDS011;14723;55.814;37.460;2022-09-13T03:55:08;12.80;;;6.50;;
27213;SDS011;14723;55.814;37.460;2022-09-13T03:58:17;11.60;;;6.65;;
27213;SDS011;14723;55.814;37.460;2022-09-13T04:01:23;11.00;;;7.50;;
27213;SDS011;14723;55.814;37.460;2022-09-13T04:04:28;11.52;;;6.93;;
27213;SDS011;14723;55.814;37.460;2022-09-13T04:07:34;11.63;;;6.40;;
27213;SDS011;14723;55.814;37.460;2022-09-13T04:10:41;12.30;;;6.68;;
27213;SDS011;14723;55.814;37.460;2022-09-13T04:13:46;11.32;;;7.20;;
27213;SDS011;14723;55.814;37.460;2022-09-13T04:16:52;11.70;;;6.32;;
27213;SDS011;14723;55.814;37.460;2022-09-13T04:19:58;12.07;;;6.63;;
27213;SDS011;14723;55.814;37.460;2022-09-13T04:23:04;8.95;;;6.63;;
27213;SDS011;14723;55.814;37.460;2022-09-13T04:26:12;11.70;;;6.75;;
27213;SDS011;14723;55.814;37.460;2022-09-13T04:29:17;11.82;;;7.25;;
27213;SDS011;14723;55.814;37.460;2022-09-13T04:32:22;11.40;;;7.32;;
27213;SDS011;14723;55.814;37.460;2022-09-13T04:35:27;14.10;;;7.03;;
27213;SDS011;14723;55.814;37.460;2022-09-13T04:38:32;11.63;;;7.35;;
27213;SDS011;14723;55.814;37.460;2022-09-13T04:41:41;9.80;;;7.03;;
27213;SDS011;14723;55.814;37.460;2022-09-13T04:44:47;11.75;;;7.20;;
27213;SDS011;14723;55.814;37.460;2022-09-13T04:47:52;13.00;;;7.80;;
27213;SDS011;14723;55.814;37.460;2022-09-13T04:51:00;15.50;;;8.38;;
27213;SDS011;14723;55.814;37.460;2022-09-13T04:54:05;17.88;;;8.10;;
27213;SDS011;14723;55.814;37.460;2022-09-13T04:57:19;19.60;;;8.75;;
27213;SDS011;14723;55.814;37.460;2022-09-13T05:00:24;14.20;;;7.47;;
27213;SDS011;14723;55.814;37.460;2022-09-13T05:03:29;18.63;;;8.18;;
27213;SDS011;14723;55.814;37.460;2022-09-13T05:06:34;14.98;;;8.60;;
27213;SDS011;14723;55.814;37.460;2022-09-13T05:09:39;13.90;;;8.45;;
27213;SDS011;14723;55.814;37.460;2022-09-13T05:12:47;13.60;;;7.40;;
27213;SDS011;14723;55.814;37.460;2022-09-13T05:15:53;14.68;;;8.55;;
27213;SDS011;14723;55.814;37.460;2022-09-13T05:18:59;14.98;;;8.23;;
27213;SDS011;14723;55.814;37.460;2022-09-13T05:22:04;15.65;;;8.05;;
27213;SDS011;14723;55.814;37.460;2022-09-13T05:25:09;17.55;;;8.77;;
27213;SDS011;14723;55.814;37.460;2022-09-13T05:28:17;16.92;;;8.60;;
27213;SDS011;14723;55.814;37.460;2022-09-13T05:31:23;14.80;;;9.20;;
27213;SDS011;14723;55.814;37.460;2022-09-13T05:34:29;14.30;;;9.25;;
27213;SDS011;14723;55.814;37.460;2022-09-13T05:37:34;20.95;;;8.95;;
27213;SDS011;14723;55.814;37.460;2022-09-13T05:40:39;16.75;;;9.18;;
27213;SDS011;14723;55.814;37.460;2022-09-13T05:43:48;20.10;;;8.85;;
27213;SDS011;14723;55.814;37.460;2022-09-13T05:46:59;15.73;;;8.23;;
27213;SDS011;14723;55.814;37.460;2022-09-13T05:50:05;14.60;;;8.10;;
27213;SDS011;14723;55.814;37.460;2022-09-13T05:53:19;13.95;;;8.35;;
27213;SDS011;14723;55.814;37.460;2022-09-13T05:56:25;15.70;;;8.82;;
27213;SDS011;14723;55.814;37.460;2022-09-13T05:59:33;19.35;;;7.88;;
27213;SDS011;14723;55.814;37.460;2022-09-13T06:02:38;18.55;;;8.98;;
27213;SDS011;14723;55.814;37.460;2022-09-13T06:05:44;14.77;;;8.90;;
27213;SDS011;14723;55.814;37.460;2022-09-13T06:08:50;15.00;;;8.52;;
27213;SDS011;14723;55.814;37.460;2022-09-13T06:11:55;18.70;;;8.18;;
27213;SDS011;14723;55.814;37.460;2022-09-13T06:15:03;15.27;;;7.90;;
27213;SDS011;14723;55.814;37.460;2022-09-13T06:18:08;11.80;;;7.97;;
27213;SDS011;14723;55.814;37.460;2022-09-13T06:21:14;18.83;;;8.52;;
27213;SDS011;14723;55.814;37.460;2022-09-13T06:24:20;13.77;;;8.40;;
27213;SDS011;14723;55.814;37.460;2022-09-13T06:27:25;13.18;;;9.23;;
27213;SDS011;14723;55.814;37.460;2022-09-13T06:30:32;18.13;;;8.88;;
27213;SDS011;14723;55.814;37.460;2022-09-13T06:33:38;20.38;;;11.80;;
27213;SDS011;14723;55.814;37.460;2022-09-13T06:36:44;25.15;;;10.05;;
27213;SDS011;14723;55.814;37.460;2022-09-13T06:39:50;11.55;;;7.65;;
27213;SDS011;14723;55.814;37.460;2022-09-13T06:42:55;19.90;;;8.07;;
27213;SDS011;14723;55.814;37.460;2022-09-13T06:46:03;14.90;;;8.05;;
27213;SDS011;14723;55.814;37.460;2022-09-13T06:49:09;15.10;;;8.02;;
27213;SDS011;14723;55.814;37.460;2022-09-13T06:52:14;18.88;;;8.43;;
27213;SDS011;14723;55.814;37.460;2022-09-13T06:55:19;15.93;;;8.32;;
27213;SDS011;14723;55.814;37.460;2022-09-13T06:58:24;15.57;;;8.18;;
27213;SDS011;14723;55.814;37.460;2022-09-13T07:01:34;14.85;;;8.95;;
27213;SDS011;14723;55.814;37.460;2022-09-13T07:04:39;14.90;;;7.65;;
27213;SDS011;14723;55.814;37.460;2022-09-13T07:07:45;15.02;;;8.20;;
27213;SDS011;14723;55.814;37.460;2022-09-13T07:10:51;12.07;;;7.60;;
27213;SDS011;14723;55.814;37.460;2022-09-13T07:14:00;19.55;;;8.00;;
27213;SDS011;14723;55.814;37.460;2022-09-13T07:17:08;18.08;;;7.88;;
27213;SDS011;14723;55.814;37.460;2022-09-13T07:20:13;14.77;;;7.30;;
27213;SDS011;14723;55.814;37.460;2022-09-13T07:23:18;14.65;;;6.97;;
27213;SDS011;14723;55.814;37.460;2022-09-13T07:26:24;17.90;;;7.20;;
27213;SDS011;14723;55.814;37.460;2022-09-13T07:29:29;10.68;;;7.03;;
27213;SDS011;14723;55.814;37.460;2022-09-13T07:32:37;13.05;;;6.80;;
27213;SDS011;14723;55.814;37.460;2022-09-13T07:35:43;12.20;;;6.78;;
27213;SDS011;14723;55.814;37.460;2022-09-13T07:38:48;13.00;;;6.43;;
27213;SDS011;14723;55.814;37.460;2022-09-13T07:41:53;14.57;;;6.30;;
27213;SDS011;14723;55.814;37.460;2022-09-13T07:44:58;11.20;;;6.38;;
27213;SDS011;14723;55.814;37.460;2022-09-13T07:48:06;15.43;;;7.13;;
27213;SDS011;14723;55.814;37.460;2022-09-13T07:51:12;9.90;;;5.55;;
27213;SDS011;14723;55.814;37.460;2022-09-13T07:54:18;11.45;;;6.22;;
27213;SDS011;14723;55.814;37.460;2022-09-13T07:57:23;11.02;;;5.70;;
27213;SDS011;14723;55.814;37.460;2022-09-13T08:00:28;7.88;;;5.18;;
27213;SDS011;14723;55.814;37.460;2022-09-13T08:03:36;10.55;;;5.93;;
27213;SDS011;14723;55.814;37.460;2022-09-13T08:06:41;9.18;;;5.30;;
27213;SDS011;14723;55.814;37.460;2022-09-13T08:09:47;13.43;;;5.93;;
27213;SDS011;14723;55.814;37.460;2022-09-13T08:12:53;8.85;;;5.28;;
27213;SDS011;14723;55.814;37.460;2022-09-13T08:15:59;7.55;;;4.88;;
27213;SDS011;14723;55.814;37.460;2022-09-13T08:19:09;9.63;;;5.10;;
27213;SDS011;14723;55.814;37.460;2022-09-13T08:22:14;8.55;;;4.72;;
27213;SDS011;14723;55.814;37.460;2022-09-13T08:25:21;7.63;;;4.22;;
27213;SDS011;14723;55.814;37.460;2022-09-13T08:28:28;8.38;;;4.50;;
27213;SDS011;14723;55.814;37.460;2022-09-13T08:31:34;16.15;;;4.00;;
27213;SDS011;14723;55.814;37.460;2022-09-13T08:34:45;12.05;;;4.40;;
27213;SDS011;14723;55.814;37.460;2022-09-13T08:37:50;9.18;;;4.00;;
27213;SDS011;14723;55.814;37.460;2022-09-13T08:40:56;11.88;;;4.13;;
27213;SDS011;14723;55.814;37.460;2022-09-13T08:44:03;8.73;;;3.85;;
27213;SDS011;14723;55.814;37.460;2022-09-13T08:50:35;10.63;;;4.00;;
27213;SDS011;14723;55.814;37.460;2022-09-13T08:53:43;6.93;;;3.47;;
27213;SDS011;14723;55.814;37.460;2022-09-13T08:56:51;8.75;;;5.00;;
27213;SDS011;14723;55.814;37.460;2022-09-13T08:59:58;8.50;;;5.00;;
27213;SDS011;14723;55.814;37.460;2022-09-13T09:03:15;9.27;;;4.93;;
27213;SDS011;14723;55.814;37.460;2022-09-13T09:06:26;14.73;;;5.35;;
27213;SDS011;14723;55.814;37.460;2022-09-13T09:09:33;10.98;;;4.07;;
27213;SDS011;14723;55.814;37.460;2022-09-13T09:12:40;10.90;;;4.90;;
27213;SDS011;14723;55.814;37.460;2022-09-13T09:15:47;8.40;;;4.07;;
27213;SDS011;14723;55.814;37.460;2022-09-13T09:18:53;8.23;;;3.58;;
27213;SDS011;14723;55.814;37.460;2022-09-13T09:22:03;8.32;;;4.03;;
27213;SDS011;14723;55.814;37.460;2022-09-13T09:25:09;8.70;;;4.07;;
27213;SDS011;14723;55.814;37.460;2022-09-13T09:28:15;8.05;;;3.78;;
27213;SDS011;14723;55.814;37.460;2022-09-13T09:31:23;7.65;;;3.42;;
27213;SDS011;14723;55.814;37.460;2022-09-13T09:34:33;8.80;;;2.97;;
27213;SDS011;14723;55.814;37.460;2022-09-13T09:37:49;11.13;;;3.35;;
27213;SDS011;14723;55.814;37.460;2022-09-13T09:40:54;12.43;;;6.18;;
27213;SDS011;14723;55.814;37.460;2022-09-13T09:44:01;11.43;;;3.17;;
27213;SDS011;14723;55.814;37.460;2022-09-13T09:47:11;6.45;;;2.80;;
27213;SDS011;14723;55.814;37.460;2022-09-13T09:50:18;6.60;;;3.10;;
27213;SDS011;14723;55.814;37.460;2022-09-13T09:53:29;4.97;;;2.78;;
27213;SDS011;14723;55.814;37.460;2022-09-13T09:56:42;7.15;;;2.83;;
27213;SDS011;14723;55.814;37.460;2022-09-13T09:59:59;8.07;;;3.13;;
27213;SDS011;14723;55.814;37.460;2022-09-13T10:06:20;6.95;;;3.05;;
27213;SDS011;14723;55.814;37.460;2022-09-13T10:09:28;7.47;;;3.75;;
27213;SDS011;14723;55.814;37.460;2022-09-13T10:12:34;5.10;;;2.90;;
27213;SDS011;14723;55.814;37.460;2022-09-13T10:15:42;7.97;;;3.10;;
27213;SDS011;14723;55.814;37.460;2022-09-13T10:19:06;3.75;;;2.47;;
27213;SDS011;14723;55.814;37.460;2022-09-13T10:22:20;6.78;;;3.13;;
27213;SDS011;14723;55.814;37.460;2022-09-13T10:25:29;5.45;;;2.65;;
27213;SDS011;14723;55.814;37.460;2022-09-13T10:28:35;4.30;;;2.85;;
27213;SDS011;14723;55.814;37.460;2022-09-13T10:31:41;6.28;;;2.90;;
27213;SDS011;14723;55.814;37.460;2022-09-13T10:34:47;8.20;;;2.95;;
27213;SDS011;14723;55.814;37.460;2022-09-13T10:37:53;8.10;;;3.03;;
27213;SDS011;14723;55.814;37.460;2022-09-13T10:41:01;11.63;;;3.30;;
27213;SDS011;14723;55.814;37.460;2022-09-13T10:44:21;4.95;;;3.05;;
27213;SDS011;14723;55.814;37.460;2022-09-13T10:47:29;6.60;;;3.13;;
27213;SDS011;14723;55.814;37.460;2022-09-13T10:50:36;10.65;;;3.35;;
27213;SDS011;14723;55.814;37.460;2022-09-13T10:53:42;3.58;;;2.28;;
27213;SDS011;14723;55.814;37.460;2022-09-13T10:56:50;8.52;;;2.70;;
27213;SDS011;14723;55.814;37.460;2022-09-13T10:59:55;5.05;;;2.95;;
27213;SDS011;14723;55.814;37.460;2022-09-13T11:03:04;10.65;;;2.72;;
27213;SDS011;14723;55.814;37.460;2022-09-13T11:06:15;5.57;;;2.72;;
27213;SDS011;14723;55.814;37.460;2022-09-13T11:09:23;8.32;;;3.20;;
27213;SDS011;14723;55.814;37.460;2022-09-13T11:12:34;14.75;;;3.35;;
27213;SDS011;14723;55.814;37.460;2022-09-13T11:15:45;14.07;;;5.97;;
27213;SDS011;14723;55.814;37.460;2022-09-13T11:18:55;5.30;;;2.80;;
27213;SDS011;14723;55.814;37.460;2022-09-13T11:22:10;7.75;;;3.25;;
27213;SDS011;14723;55.814;37.460;2022-09-13T11:25:26;8.45;;;2.90;;
27213;SDS011;14723;55.814;37.460;2022-09-13T11:28:38;8.25;;;2.88;;
27213;SDS011;14723;55.814;37.460;2022-09-13T11:31:47;5.30;;;2.63;;
27213;SDS011;14723;55.814;37.460;2022-09-13T11:35:03;7.22;;;2.47;;
27213;SDS011;14723;55.814;37.460;2022-09-13T11:38:15;7.15;;;2.67;;
27213;SDS011;14723;55.814;37.460;2022-09-13T11:41:25;5.55;;;2.75;;
27213;SDS011;14723;55.814;37.460;2022-09-13T11:44:50;9.00;;;2.83;;
27213;SDS011;14723;55.814;37.460;2022-09-13T11:51:21;4.60;;;2.53;;
27213;SDS011;14723;55.814;37.460;2022-09-13T11:54:41;7.68;;;2.58;;
27213;SDS011;14723;55.814;37.460;2022-09-13T11:57:50;7.68;;;3.08;;
27213;SDS011;14723;55.814;37.460;2022-09-13T12:00:59;8.93;;;3.43;;
27213;SDS011;14723;55.814;37.460;2022-09-13T12:04:06;13.88;;;3.65;;
27213;SDS011;14723;55.814;37.460;2022-09-13T12:07:13;17.48;;;10.82;;
27213;SDS011;14723;55.814;37.460;2022-09-13T12:10:22;6.30;;;3.40;;
27213;SDS011;14723;55.814;37.460;2022-09-13T12:13:29;5.05;;;2.75;;
27213;SDS011;14723;55.814;37.460;2022-09-13T12:16:39;4.85;;;2.83;;
27213;SDS011;14723;55.814;37.460;2022-09-13T12:19:46;7.30;;;2.72;;
27213;SDS011;14723;55.814;37.460;2022-09-13T12:22:57;13.63;;;3.30;;
27213;SDS011;14723;55.814;37.460;2022-09-13T12:26:04;7.50;;;2.63;;
27213;SDS011;14723;55.814;37.460;2022-09-13T12:29:13;6.95;;;3.10;;
27213;SDS011;14723;55.814;37.460;2022-09-13T12:32:22;6.05;;;2.72;;
27213;SDS011;14723;55.814;37.460;2022-09-13T12:35:28;8.75;;;3.63;;
27213;SDS011;14723;55.814;37.460;2022-09-13T12:38:48;8.23;;;2.60;;
27213;SDS011;14723;55.814;37.460;2022-09-13T12:42:06;7.45;;;2.83;;
27213;SDS011;14723;55.814;37.460;2022-09-13T12:45:33;7.15;;;3.00;;
27213;SDS011;14723;55.814;37.460;2022-09-13T12:48:49;5.60;;;3.20;;
27213;SDS011;14723;55.814;37.460;2022-09-13T12:52:05;16.35;;;3.13;;
27213;SDS011;14723;55.814;37.460;2022-09-13T12:55:18;7.05;;;2.88;;
27213;SDS011;14723;55.814;37.460;2022-09-13T12:58:50;6.53;;;2.92;;
27213;SDS011;14723;55.814;37.460;2022-09-13T13:01:57;5.57;;;2.42;;
27213;SDS011;14723;55.814;37.460;2022-09-13T13:05:13;6.85;;;2.42;;
27213;SDS011;14723;55.814;37.460;2022-09-13T13:08:24;11.07;;;2.90;;
27213;SDS011;14723;55.814;37.460;2022-09-13T13:11:39;6.57;;;2.55;;
27213;SDS011;14723;55.814;37.460;2022-09-13T13:14:46;4.32;;;2.75;;
27213;SDS011;14723;55.814;37.460;2022-09-13T13:17:54;8.23;;;2.85;;
27213;SDS011;14723;55.814;37.460;2022-09-13T13:27:46;4.00;;;1.85;;
27213;SDS011;14723;55.814;37.460;2022-09-13T13:30:56;6.07;;;2.10;;
27213;SDS011;14723;55.814;37.460;2022-09-13T13:34:02;5.43;;;2.63;;
27213;SDS011;14723;55.814;37.460;2022-09-13T13:37:35;8.48;;;2.20;;
27213;SDS011;14723;55.814;37.460;2022-09-13T13:40:41;4.20;;;2.10;;
27213;SDS011;14723;55.814;37.460;2022-09-13T13:43:49;6.68;;;2.42;;
27213;SDS011;14723;55.814;37.460;2022-09-13T13:47:39;5.47;;;2.33;;
27213;SDS011;14723;55.814;37.460;2022-09-13T13:50:19;3.20;;;2.30;;
27213;SDS011;14723;55.814;37.460;2022-09-13T13:53:34;7.88;;;2.58;;
27213;SDS011;14723;55.814;37.460;2022-09-13T13:56:46;4.57;;;1.98;;
27213;SDS011;14723;55.814;37.460;2022-09-13T13:59:55;5.40;;;2.10;;
27213;SDS011;14723;55.814;37.460;2022-09-13T14:03:07;5.32;;;2.40;;
27213;SDS011;14723;55.814;37.460;2022-09-13T14:06:14;7.55;;;2.40;;
27213;SDS011;14723;55.814;37.460;2022-09-13T14:09:27;4.93;;;1.98;;
27213;SDS011;14723;55.814;37.460;2022-09-13T14:12:37;5.38;;;2.35;;
27213;SDS011;14723;55.814;37.460;2022-09-13T14:15:52;8.18;;;4.50;;
27213;SDS011;14723;55.814;37.460;2022-09-13T14:19:02;6.22;;;2.45;;
27213;SDS011;14723;55.814;37.460;2022-09-13T14:22:14;4.95;;;1.98;;
27213;SDS011;14723;55.814;37.460;2022-09-13T14:25:23;3.45;;;2.13;;
27213;SDS011;14723;55.814;37.460;2022-09-13T14:28:30;4.65;;;1.90;;
27213;SDS011;14723;55.814;37.460;2022-09-13T14:31:38;6.03;;;3.00;;
27213;SDS011;14723;55.814;37.460;2022-09-13T14:34:54;4.72;;;3.58;;
27213;SDS011;14723;55.814;37.460;2022-09-13T14:38:09;5.00;;;2.15;;
27213;SDS011;14723;55.814;37.460;2022-09-13T14:41:16;5.70;;;2.45;;
27213;SDS011;14723;55.814;37.460;2022-09-13T14:44:22;6.57;;;4.65;;
27213;SDS011;14723;55.814;37.460;2022-09-13T14:50:38;10.50;;;3.72;;
27213;SDS011;14723;55.814;37.460;2022-09-13T14:53:44;8.15;;;3.30;;
27213;SDS011;14723;55.814;37.460;2022-09-13T14:56:51;7.50;;;2.90;;
27213;SDS011;14723;55.814;37.460;2022-09-13T14:59:57;16.85;;;3.97;;
27213;SDS011;14723;55.814;37.460;2022-09-13T15:03:11;7.22;;;3.08;;
27213;SDS011;14723;55.814;37.460;2022-09-13T15:06:23;7.53;;;2.58;;
27213;SDS011;14723;55.814;37.460;2022-09-13T15:09:29;6.88;;;2.65;;
27213;SDS011;14723;55.814;37.460;2022-09-13T15:12:35;6.18;;;2.70;;
27213;SDS011;14723;55.814;37.460;2022-09-13T15:15:40;4.65;;;2.60;;
27213;SDS011;14723;55.814;37.460;2022-09-13T15:18:46;5.82;;;2.85;;
27213;SDS011;14723;55.814;37.460;2022-09-13T15:21:54;8.73;;;2.85;;
27213;SDS011;14723;55.814;37.460;2022-09-13T15:25:15;6.57;;;2.80;;
27213;SDS011;14723;55.814;37.460;2022-09-13T15:28:24;5.53;;;2.40;;
27213;SDS011;14723;55.814;37.460;2022-09-13T15:31:30;4.57;;;2.50;;
27213;SDS011;14723;55.814;37.460;2022-09-13T15:34:44;16.80;;;3.28;;
27213;SDS011;14723;55.814;37.460;2022-09-13T15:38:00;10.70;;;2.90;;
27213;SDS011;14723;55.814;37.460;2022-09-13T15:41:11;3.97;;;2.80;;
27213;SDS011;14723;55.814;37.460;2022-09-13T15:44:16;6.10;;;3.13;;
27213;SDS011;14723;55.814;37.460;2022-09-13T15:47:21;14.05;;;4.13;;
27213;SDS011;14723;55.814;37.460;2022-09-13T15:50:27;8.38;;;3.70;;
27213;SDS011;14723;55.814;37.460;2022-09-13T15:53:36;7.95;;;2.97;;
27213;SDS011;14723;55.814;37.460;2022-09-13T15:56:42;8.88;;;3.08;;
27213;SDS011;14723;55.814;37.460;2022-09-13T15:59:47;13.25;;;3.30;;
27213;SDS011;14723;55.814;37.460;2022-09-13T16:02:52;4.72;;;2.42;;
27213;SDS011;14723;55.814;37.460;2022-09-13T16:05:58;6.50;;;2.92;;
27213;SDS011;14723;55.814;37.460;2022-09-13T16:09:07;7.07;;;2.78;;
27213;SDS011;14723;55.814;37.460;2022-09-13T16:12:15;3.75;;;2.88;;
27213;SDS011;14723;55.814;37.460;2022-09-13T16:15:24;15.73;;;3.63;;
27213;SDS011;14723;55.814;37.460;2022-09-13T16:18:30;11.18;;;4.07;;
27213;SDS011;14723;55.814;37.460;2022-09-13T16:21:35;15.00;;;3.65;;
27213;SDS011;14723;55.814;37.460;2022-09-13T16:24:43;8.05;;;3.10;;
27213;SDS011;14723;55.814;37.460;2022-09-13T16:27:48;10.43;;;6.88;;
27213;SDS011;14723;55.814;37.460;2022-09-13T16:30:55;26.83;;;19.05;;
27213;SDS011;14723;55.814;37.460;2022-09-13T16:34:00;13.57;;;4.35;;
27213;SDS011;14723;55.814;37.460;2022-09-13T16:37:05;11.02;;;3.53;;
27213;SDS011;14723;55.814;37.460;2022-09-13T16:40:13;8.52;;;3.40;;
27213;SDS011;14723;55.814;37.460;2022-09-13T16:43:18;11.40;;;4.60;;
27213;SDS011;14723;55.814;37.460;2022-09-13T16:46:23;7.00;;;3.40;;
27213;SDS011;14723;55.814;37.460;2022-09-13T16:49:29;4.25;;;3.22;;
27213;SDS011;14723;55.814;37.460;2022-09-13T16:52:35;6.43;;;3.85;;
27213;SDS011;14723;55.814;37.460;2022-09-13T16:55:43;7.88;;;3.85;;
27213;SDS011;14723;55.814;37.460;2022-09-13T16:58:49;8.15;;;3.45;;
27213;SDS011;14723;55.814;37.460;2022-09-13T17:01:54;8.45;;;4.00;;
27213;SDS011;14723;55.814;37.460;2022-09-13T17:05:00;7.82;;;4.15;;
27213;SDS011;14723;55.814;37.460;2022-09-13T17:08:08;6.60;;;3.65;;
27213;SDS011;14723;55.814;37.460;2022-09-13T17:11:17;9.32;;;4.10;;
27213;SDS011;14723;55.814;37.460;2022-09-13T17:17:27;7.78;;;4.18;;
27213;SDS011;14723;55.814;37.460;2022-09-13T17:20:41;11.48;;;3.97;;
27213;SDS011;14723;55.814;37.460;2022-09-13T17:23:46;7.18;;;4.05;;
27213;SDS011;14723;55.814;37.460;2022-09-13T17:26:54;6.20;;;4.13;;
27213;SDS011;14723;55.814;37.460;2022-09-13T17:30:00;9.90;;;4.72;;
27213;SDS011;14723;55.814;37.460;2022-09-13T17:33:06;9.52;;;5.05;;
27213;SDS011;14723;55.814;37.460;2022-09-13T17:36:12;7.80;;;4.22;;
27213;SDS011;14723;55.814;37.460;2022-09-13T17:39:18;9.48;;;4.97;;
27213;SDS011;14723;55.814;37.460;2022-09-13T17:42:25;9.13;;;4.40;;
27213;SDS011;14723;55.814;37.460;2022-09-13T17:45:31;11.25;;;6.05;;
27213;SDS011;14723;55.814;37.460;2022-09-13T17:48:36;10.25;;;4.93;;
27213;SDS011;14723;55.814;37.460;2022-09-13T17:51:41;10.27;;;5.47;;
27213;SDS011;14723;55.814;37.460;2022-09-13T17:54:46;13.20;;;5.68;;
27213;SDS011;14723;55.814;37.460;2022-09-13T17:57:54;8.95;;;5.10;;
27213;SDS011;14723;55.814;37.460;2022-09-13T18:01:00;9.80;;;5.17;;
27213;SDS011;14723;55.814;37.460;2022-09-13T18:04:05;10.02;;;5.20;;
27213;SDS011;14723;55.814;37.460;2022-09-13T18:07:11;8.40;;;4.55;;
27213;SDS011;14723;55.814;37.460;2022-09-13T18:10:16;9.43;;;5.40;;
27213;SDS011;14723;55.814;37.460;2022-09-13T18:13:44;7.15;;;4.97;;
27213;SDS011;14723;55.814;37.460;2022-09-13T18:16:49;9.48;;;4.90;;
27213;SDS011;14723;55.814;37.460;2022-09-13T18:19:56;8.18;;;5.38;;
27213;SDS011;14723;55.814;37.460;2022-09-13T18:23:03;7.55;;;4.75;;
27213;SDS011;14723;55.814;37.460;2022-09-13T18:26:09;8.55;;;4.70;;
27213;SDS011;14723;55.814;37.460;2022-09-13T18:29:17;12.18;;;5.50;;
27213;SDS011;14723;55.814;37.460;2022-09-13T18:32:23;9.35;;;5.45;;
27213;SDS011;14723;55.814;37.460;2022-09-13T18:35:28;10.35;;;5.07;;
27213;SDS011;14723;55.814;37.460;2022-09-13T18:38:33;8.57;;;4.65;;
27213;SDS011;14723;55.814;37.460;2022-09-13T18:41:39;8.35;;;5.65;;
27213;SDS011;14723;55.814;37.460;2022-09-13T18:44:48;9.25;;;5.38;;
27213;SDS011;14723;55.814;37.460;2022-09-13T18:47:53;6.82;;;4.72;;
27213;SDS011;14723;55.814;37.460;2022-09-13T18:50:59;8.13;;;5.15;;
27213;SDS011;14723;55.814;37.460;2022-09-13T18:54:04;7.28;;;4.70;;
27213;SDS011;14723;55.814;37.460;2022-09-13T18:57:10;15.07;;;6.00;;
27213;SDS011;14723;55.814;37.460;2022-09-13T19:00:18;8.95;;;4.95;;
27213;SDS011;14723;55.814;37.460;2022-09-13T19:03:23;7.03;;;4.45;;